Time;durP1;ratioP1;P1;durP2;ratioP2;P2;SDS_P1;SDS_P2;PMS_P1;PMS_P2;Temp;Humidity;BMP_temperature;BMP_pressure;BME280_temperature;BME280_humidity;BME280_pressure;Samples;Min_cycle;Max_cycle;Signal;HPM_P1;HPM_P2
2023/10/12 00:02:00;;;;;;;8.07;4.13;;;19.00;96.30;;;;;;5045944;28;20184;-90
2023/10/12 00:04:35;;;;;;;5.60;4.22;;;18.70;96.30;;;;;;5054508;28;20209;-90
2023/10/12 00:07:14;;;;;;;6.95;4.75;;;19.00;96.60;;;;;;5056100;28;20187;-90
2023/10/12 00:09:40;;;;;;;6.68;4.25;;;19.00;96.90;;;;;;5055305;28;20222;-90
2023/10/12 00:12:08;;;;;;;6.33;4.30;;;18.90;97.10;;;;;;5054677;28;20213;-90
2023/10/12 00:14:35;;;;;;;7.95;4.65;;;18.60;97.30;;;;;;5063779;28;20188;-90
2023/10/12 00:17:01;;;;;;;7.20;4.57;;;19.90;98.40;;;;;;5071753;28;20279;-89
2023/10/12 00:19:27;;;;;;;5.37;4.20;;;18.10;98.00;;;;;;5066586;28;20192;-90
2023/10/12 00:21:59;;;;;;;5.80;4.33;;;17.90;98.80;;;;;;5070306;28;20818;-90
2023/10/12 00:24:30;;;;;;;5.95;4.57;;;18.10;99.20;;;;;;5063643;28;20255;-89
2023/10/12 00:26:58;;;;;;;6.20;4.65;;;17.60;99.20;;;;;;5062784;28;20243;-90
2023/10/12 00:29:23;;;;;;;7.18;4.22;;;18.00;99.80;;;;;;5066874;28;20180;-90
2023/10/12 00:31:49;;;;;;;7.97;4.40;;;17.80;99.90;;;;;;5057693;28;20181;-90
2023/10/12 00:34:16;;;;;;;5.73;4.63;;;17.00;99.90;;;;;;5049678;28;20235;-90
2023/10/12 00:36:45;;;;;;;6.93;4.50;;;17.10;99.90;;;;;;5046712;28;20182;-90
2023/10/12 00:39:11;;;;;;;8.80;4.68;;;17.20;99.90;;;;;;5044044;28;20181;-90
2023/10/12 00:41:44;;;;;;;7.07;4.90;;;16.90;99.90;;;;;;5051078;28;20199;-90
2023/10/12 00:44:10;;;;;;;9.15;4.88;;;17.30;99.90;;;;;;5045944;28;20220;-90
2023/10/12 00:51:52;;;;;;;5.70;4.35;;;16.70;99.90;;;;;;5063909;28;20520;-90
2023/10/12 00:54:28;;;;;;;5.80;4.25;;;16.70;99.90;;;;;;5049348;28;20674;-90
2023/10/12 00:56:57;;;;;;;6.13;4.30;;;16.50;99.90;;;;;;5070047;28;20195;-90
2023/10/12 00:59:23;;;;;;;5.57;5.05;;;16.30;99.90;;;;;;5048699;28;20189;-90
2023/10/12 01:01:49;;;;;;;5.78;4.50;;;16.70;99.90;;;;;;5050470;28;20387;-90
2023/10/12 01:04:16;;;;;;;5.60;4.40;;;16.60;99.90;;;;;;5059858;28;20295;-90
2023/10/12 01:06:44;;;;;;;9.02;5.32;;;16.30;99.90;;;;;;5048491;28;20790;-90
2023/10/12 01:09:20;;;;;;;6.57;4.70;;;16.60;99.90;;;;;;5045111;28;20181;-90
2023/10/12 01:12:00;;;;;;;7.63;5.32;;;16.30;99.90;;;;;;5051492;28;20187;-89
2023/10/12 01:14:28;;;;;;;6.53;4.78;;;16.00;99.90;;;;;;5048169;28;20192;-90
2023/10/12 01:16:57;;;;;;;9.25;4.53;;;16.30;99.90;;;;;;5049893;28;20185;-90
2023/10/12 01:19:25;;;;;;;8.88;5.43;;;16.00;99.90;;;;;;5060759;28;20193;-90
2023/10/12 01:21:54;;;;;;;6.25;4.78;;;16.10;99.90;;;;;;5073000;28;20228;-89
2023/10/12 01:24:29;;;;;;;7.50;5.05;;;15.90;99.90;;;;;;5075667;28;20238;-89
2023/10/12 01:26:56;;;;;;;6.22;4.63;;;15.90;99.90;;;;;;5066446;28;20244;-89
2023/10/12 01:29:22;;;;;;;5.80;4.63;;;15.80;99.90;;;;;;5063778;28;20185;-90
2023/10/12 01:32:37;;;;;;;7.10;5.10;;;15.30;99.90;;;;;;5047302;28;20185;-90
2023/10/12 01:34:38;;;;;;;7.15;5.13;;;15.50;99.90;;;;;;5051571;28;20925;-90
2023/10/12 01:37:55;;;;;;;6.50;5.47;;;15.90;99.90;;;;;;5031308;28;20193;-90
2023/10/12 01:39:57;;;;;;;7.15;4.72;;;15.60;99.90;;;;;;5056565;28;20231;-90
2023/10/12 01:42:35;;;;;;;6.15;4.35;;;15.60;99.90;;;;;;5047447;28;20275;-90
2023/10/12 01:45:03;;;;;;;9.73;5.20;;;15.80;99.90;;;;;;5039542;28;20218;-90
2023/10/12 01:47:29;;;;;;;6.20;5.13;;;15.80;99.90;;;;;;5042708;28;20245;-90
2023/10/12 01:50:00;;;;;;;8.35;4.60;;;15.50;99.90;;;;;;5061159;28;20180;-90
2023/10/12 01:52:26;;;;;;;6.55;4.65;;;15.60;99.90;;;;;;5061936;28;20578;-90
2023/10/12 01:54:52;;;;;;;6.65;5.55;;;15.40;99.90;;;;;;5064706;28;20189;-90
2023/10/12 01:57:29;;;;;;;7.90;5.40;;;15.70;99.90;;;;;;5060288;28;20284;-90
2023/10/12 01:59:55;;;;;;;8.40;5.68;;;15.70;99.90;;;;;;5049364;28;20189;-90
2023/10/12 02:02:21;;;;;;;6.30;5.03;;;15.40;99.90;;;;;;5064763;28;20209;-90
2023/10/12 02:04:51;;;;;;;6.40;4.50;;;15.90;99.90;;;;;;5060552;28;20300;-90
2023/10/12 02:07:16;;;;;;;5.38;4.75;;;15.80;99.90;;;;;;5063436;28;20185;-90
2023/10/12 02:09:44;;;;;;;9.10;5.23;;;15.60;99.90;;;;;;5067956;28;20270;-90
2023/10/12 02:12:11;;;;;;;6.20;5.60;;;15.50;99.90;;;;;;5049744;28;20176;-90
2023/10/12 02:14:40;;;;;;;6.05;5.10;;;15.50;99.90;;;;;;5062695;28;20596;-90
2023/10/12 02:17:08;;;;;;;6.70;5.05;;;16.60;99.90;;;;;;5068609;28;20187;-89
2023/10/12 02:19:42;;;;;;;9.20;5.22;;;15.10;99.90;;;;;;5064161;28;20232;-90
2023/10/12 02:22:28;;;;;;;6.68;4.50;;;15.30;99.90;;;;;;5063699;28;20219;-90
2023/10/12 02:25:08;;;;;;;6.47;4.90;;;15.70;99.90;;;;;;5061501;28;20208;-90
2023/10/12 02:27:34;;;;;;;7.95;5.93;;;15.60;99.90;;;;;;5063460;28;20185;-90
2023/10/12 02:29:59;;;;;;;8.17;5.30;;;15.50;99.90;;;;;;5061354;28;20274;-90
2023/10/12 02:32:25;;;;;;;9.87;5.30;;;15.50;99.90;;;;;;5064796;28;20197;-90
2023/10/12 02:34:56;;;;;;;7.07;5.43;;;15.40;99.90;;;;;;5065889;28;20195;-90
2023/10/12 02:37:24;;;;;;;7.60;5.40;;;15.50;99.90;;;;;;5063784;28;20245;-90
2023/10/12 02:39:53;;;;;;;7.30;5.30;;;16.00;99.90;;;;;;5049917;28;20189;-90
2023/10/12 02:42:22;;;;;;;7.18;5.35;;;15.50;99.90;;;;;;5064345;28;21010;-90
2023/10/12 02:47:22;;;;;;;5.95;5.00;;;15.60;99.90;;;;;;5061549;28;20597;-90
2023/10/12 02:49:48;;;;;;;10.40;5.57;;;15.90;99.90;;;;;;5034047;28;20193;-90
2023/10/12 02:52:15;;;;;;;6.72;5.13;;;15.30;99.90;;;;;;5042761;28;20292;-90
2023/10/12 02:54:51;;;;;;;6.53;5.50;;;15.50;99.90;;;;;;5048204;28;20719;-90
2023/10/12 02:57:31;;;;;;;11.40;5.70;;;15.60;99.90;;;;;;5052416;28;20172;-90
2023/10/12 02:59:57;;;;;;;6.95;5.60;;;15.70;99.90;;;;;;5070824;28;20189;-90
2023/10/12 03:02:32;;;;;;;10.65;5.63;;;15.90;99.90;;;;;;5062277;28;20216;-90
2023/10/12 03:05:08;;;;;;;7.03;5.97;;;15.70;99.90;;;;;;5049789;28;20212;-90
2023/10/12 03:07:39;;;;;;;8.95;5.90;;;15.50;99.90;;;;;;5032340;28;20235;-90
2023/10/12 03:10:07;;;;;;;9.50;6.03;;;16.00;99.90;;;;;;5043265;28;20180;-90
2023/10/12 03:12:41;;;;;;;7.10;5.75;;;15.70;99.90;;;;;;5047675;28;20588;-90
2023/10/12 03:15:13;;;;;;;9.73;5.43;;;15.70;99.90;;;;;;5051566;28;20225;-90
2023/10/12 03:17:45;;;;;;;6.35;5.55;;;15.90;99.90;;;;;;5049163;28;20192;-90
2023/10/12 03:20:22;;;;;;;7.35;6.00;;;15.90;99.90;;;;;;5055953;28;20614;-87
2023/10/12 03:22:53;;;;;;;8.05;5.45;;;15.60;99.90;;;;;;5058413;28;20612;-87
2023/10/12 03:25:20;;;;;;;7.30;4.88;;;15.80;99.90;;;;;;5076476;28;20213;-87
2023/10/12 03:27:53;;;;;;;7.05;5.40;;;15.90;99.90;;;;;;5074009;28;20197;-87
2023/10/12 03:30:24;;;;;;;7.53;5.97;;;16.50;99.90;;;;;;5060752;28;20213;-87
2023/10/12 03:32:49;;;;;;;7.15;5.35;;;15.90;99.90;;;;;;5052039;28;20223;-87
2023/10/12 03:35:22;;;;;;;7.50;5.37;;;15.80;99.90;;;;;;5049646;28;20217;-87
2023/10/12 03:38:00;;;;;;;8.32;5.68;;;16.30;99.90;;;;;;5050243;28;20189;-87
2023/10/12 03:43:25;;;;;;;5.63;4.55;;;16.10;99.90;;;;;;5066589;28;20204;-87
2023/10/12 03:46:07;;;;;;;5.68;5.07;;;16.50;99.90;;;;;;5064883;28;20181;-87
2023/10/12 03:51:26;;;;;;;6.68;5.25;;;16.30;99.90;;;;;;5034614;28;20192;-86
2023/10/12 03:53:57;;;;;;;6.85;5.18;;;16.60;99.90;;;;;;5050409;28;20657;-87
2023/10/12 03:56:28;;;;;;;8.38;5.50;;;16.40;99.90;;;;;;5045755;28;20189;-87
2023/10/12 03:59:06;;;;;;;9.00;6.13;;;16.40;99.90;;;;;;5048596;28;20182;-87
2023/10/12 04:01:34;;;;;;;6.75;5.75;;;16.90;99.90;;;;;;5045249;28;20181;-87
2023/10/12 04:04:09;;;;;;;8.20;5.60;;;16.10;99.90;;;;;;5049103;28;20208;-87
2023/10/12 04:06:56;;;;;;;10.25;5.68;;;16.60;99.90;;;;;;5049925;28;20184;-87
2023/10/12 04:09:31;;;;;;;7.32;4.88;;;16.30;99.90;;;;;;5046732;28;20192;-87
2023/10/12 04:12:11;;;;;;;7.55;5.65;;;16.30;99.90;;;;;;5063881;28;20173;-87
2023/10/12 04:14:45;;;;;;;7.97;5.05;;;16.60;99.90;;;;;;5050459;28;20200;-87
2023/10/12 04:28:10;;;;;;;7.22;4.70;;;16.80;99.90;;;;;;5064412;28;20239;-87
2023/10/12 04:33:24;;;;;;;6.82;5.07;;;16.40;99.90;;;;;;5066722;28;20214;-88
2023/10/12 04:44:06;;;;;;;9.10;6.45;;;16.80;99.90;;;;;;5063261;28;20214;-88
2023/10/12 04:46:47;;;;;;;11.00;6.57;;;16.60;99.90;;;;;;5070008;28;20184;-88
2023/10/12 04:54:28;;;;;;;7.45;5.97;;;16.40;99.90;;;;;;5068605;28;20192;-88
2023/10/12 04:56:57;;;;;;;6.87;6.00;;;16.20;99.90;;;;;;5055026;28;20562;-88
2023/10/12 04:59:28;;;;;;;8.48;5.25;;;16.90;99.90;;;;;;5045707;28;20666;-88
2023/10/12 05:02:06;;;;;;;8.95;5.72;;;16.60;99.90;;;;;;5051563;28;20185;-89
2023/10/12 05:09:51;;;;;;;14.43;7.30;;;16.60;99.90;;;;;;5074513;28;20253;-87
2023/10/12 05:12:25;;;;;;;8.30;5.38;;;16.70;99.90;;;;;;5051280;28;20288;-89
2023/10/12 05:15:00;;;;;;;8.02;5.65;;;16.10;99.90;;;;;;5055063;28;20189;-89
2023/10/12 05:17:27;;;;;;;6.25;5.15;;;16.50;99.90;;;;;;5049810;28;20455;-90
2023/10/12 05:19:53;;;;;;;10.48;5.60;;;16.90;99.90;;;;;;5054696;28;20192;-90
2023/10/12 05:22:22;;;;;;;8.27;6.70;;;17.10;99.90;;;;;;5055029;28;20212;-90
2023/10/12 05:24:47;;;;;;;8.88;5.90;;;16.90;99.90;;;;;;5057725;28;20466;-89
2023/10/12 05:27:24;;;;;;;7.43;5.73;;;16.90;99.90;;;;;;5059304;28;20212;-89
2023/10/12 05:30:05;;;;;;;8.65;6.63;;;17.00;99.90;;;;;;5075423;28;20196;-88
2023/10/12 05:32:42;;;;;;;8.05;6.43;;;16.60;99.90;;;;;;5055713;28;20220;-88
2023/10/12 05:35:15;;;;;;;6.95;6.28;;;16.50;99.90;;;;;;5065005;28;20181;-89
2023/10/12 05:37:50;;;;;;;10.88;7.68;;;16.60;99.90;;;;;;5066584;28;20193;-89
2023/10/12 05:40:16;;;;;;;7.75;6.93;;;16.60;99.90;;;;;;5067653;28;20187;-88
2023/10/12 05:42:46;;;;;;;14.70;7.00;;;17.00;99.90;;;;;;5059962;28;20205;-89
2023/10/12 05:45:31;;;;;;;8.77;7.18;;;16.80;99.90;;;;;;5069161;28;20189;-87
2023/10/12 05:47:57;;;;;;;7.38;6.32;;;16.80;99.90;;;;;;5061416;28;20177;-89
2023/10/12 05:50:23;;;;;;;8.55;6.35;;;16.60;99.90;;;;;;5055933;28;20197;-85
2023/10/12 05:52:52;;;;;;;8.40;6.25;;;17.30;99.90;;;;;;5079832;28;20201;-87
2023/10/12 05:55:40;;;;;;;6.88;5.60;;;17.00;99.90;;;;;;5065630;28;20187;-86
2023/10/12 05:58:11;;;;;;;9.10;6.57;;;16.90;99.90;;;;;;5084233;28;20343;-86
2023/10/12 06:00:37;;;;;;;6.35;5.40;;;17.20;99.90;;;;;;5070314;28;20174;-89
2023/10/12 06:03:10;;;;;;;6.25;5.65;;;17.10;99.90;;;;;;5055430;28;20201;-88
2023/10/12 06:05:36;;;;;;;5.80;5.30;;;17.10;99.90;;;;;;5058610;28;20252;-87
2023/10/12 06:08:05;;;;;;;8.03;5.67;;;17.80;99.90;;;;;;5045800;28;20197;-88
2023/10/12 06:10:31;;;;;;;8.57;6.53;;;17.40;99.90;;;;;;5057574;28;20501;-89
2023/10/12 06:12:57;;;;;;;6.60;5.40;;;17.50;99.90;;;;;;5049528;28;20678;-88
2023/10/12 06:15:28;;;;;;;8.13;6.00;;;17.70;99.90;;;;;;5050865;28;20740;-88
2023/10/12 06:17:55;;;;;;;5.85;5.32;;;17.80;99.90;;;;;;5048276;28;20181;-88
2023/10/12 06:20:35;;;;;;;6.93;4.90;;;17.90;99.90;;;;;;5051794;28;20823;-88
2023/10/12 06:23:08;;;;;;;12.60;5.55;;;17.70;99.90;;;;;;5054173;28;20209;-88
2023/10/12 06:25:37;;;;;;;11.32;6.40;;;17.80;99.90;;;;;;5055682;28;20216;-89
2023/10/12 06:28:05;;;;;;;8.95;5.50;;;18.30;99.90;;;;;;5066583;28;20177;-90
2023/10/12 06:30:31;;;;;;;7.75;5.05;;;18.00;99.90;;;;;;5054092;28;20184;-87
2023/10/12 06:32:59;;;;;;;5.50;4.70;;;18.50;99.90;;;;;;5057064;28;20205;-87
2023/10/12 06:35:25;;;;;;;10.98;5.55;;;18.30;99.90;;;;;;5052811;28;20438;-87
2023/10/12 06:45:49;;;;;;;10.32;5.53;;;19.40;98.90;;;;;;5065409;28;20194;-87
2023/10/12 06:51:02;;;;;;;6.57;5.28;;;19.50;98.10;;;;;;5074320;28;20186;-87
2023/10/12 06:53:35;;;;;;;4.93;4.53;;;19.60;97.10;;;;;;5053168;28;20203;-87
2023/10/12 06:56:24;;;;;;;9.43;5.20;;;19.90;97.00;;;;;;5049162;28;20216;-86
2023/10/12 06:59:20;;;;;;;7.30;4.90;;;20.50;97.20;;;;;;5049401;28;20184;-87
2023/10/12 07:04:16;;;;;;;7.95;5.82;;;20.70;97.00;;;;;;5091771;28;20192;-87
2023/10/12 07:09:46;;;;;;;7.88;5.45;;;20.90;97.00;;;;;;5060233;28;20254;-88
2023/10/12 07:12:20;;;;;;;8.35;5.60;;;20.70;95.70;;;;;;5069357;28;20223;-88
2023/10/12 07:14:46;;;;;;;7.22;5.00;;;20.80;94.80;;;;;;5067866;28;20177;-88
2023/10/12 07:17:13;;;;;;;6.80;4.73;;;21.10;94.50;;;;;;5069973;28;20220;-89
2023/10/12 07:19:46;;;;;;;5.83;5.20;;;21.90;94.00;;;;;;5051358;28;20492;-89
2023/10/12 07:22:15;;;;;;;7.23;5.53;;;21.80;93.20;;;;;;5048239;28;20491;-89
2023/10/12 07:24:42;;;;;;;5.80;4.57;;;21.80;92.10;;;;;;5044489;28;20483;-89
2023/10/12 07:27:13;;;;;;;7.10;4.27;;;22.10;91.60;;;;;;5036297;28;20442;-89
2023/10/12 07:29:44;;;;;;;6.90;5.00;;;21.90;90.70;;;;;;5049599;28;20426;-84
2023/10/12 07:34:57;;;;;;;5.50;4.43;;;22.10;90.20;;;;;;5072941;28;20954;-90
2023/10/12 07:37:22;;;;;;;7.67;5.13;;;22.80;90.40;;;;;;5053594;28;20451;-89
2023/10/12 07:39:50;;;;;;;5.80;4.70;;;22.30;89.20;;;;;;5078488;28;20445;-86
2023/10/12 07:42:25;;;;;;;5.10;4.20;;;22.40;89.30;;;;;;5065742;28;20197;-86
2023/10/12 07:44:59;;;;;;;6.30;4.77;;;22.00;89.00;;;;;;5049495;28;20463;-85
2023/10/12 07:47:31;;;;;;;8.30;5.10;;;22.20;89.90;;;;;;5051155;28;20438;-86
2023/10/12 07:50:06;;;;;;;6.90;4.83;;;22.10;90.20;;;;;;5045737;28;20809;-86
2023/10/12 07:52:46;;;;;;;7.47;4.67;;;21.90;89.80;;;;;;5045809;28;20454;-87
2023/10/12 07:55:13;;;;;;;6.67;5.33;;;22.60;90.20;;;;;;5043338;28;20436;-89
2023/10/12 07:57:39;;;;;;;9.13;5.07;;;21.90;90.10;;;;;;5045658;28;20536;-88
2023/10/12 08:10:48;;;;;;;12.77;10.73;;;21.70;89.80;;;;;;5064167;28;20714;-80
2023/10/12 08:24:10;;;;;;;7.90;5.28;;;21.90;90.30;;;;;;5091938;28;20507;-82
2023/10/12 08:32:03;;;;;;;6.38;5.50;;;22.20;90.30;;;;;;5071389;28;20180;-83
2023/10/12 08:39:38;;;;;;;9.05;5.53;;;21.60;90.30;;;;;;5079762;28;20189;-83
2023/10/12 08:44:50;;;;;;;7.65;6.18;;;21.70;90.20;;;;;;5076970;28;20459;-83
2023/10/12 08:49:53;;;;;;;8.97;5.00;;;21.70;90.60;;;;;;5074340;28;20203;-84
2023/10/12 08:52:27;;;;;;;7.10;4.70;;;21.50;90.40;;;;;;5051432;28;20459;-83
2023/10/12 08:54:57;;;;;;;5.60;4.70;;;21.80;90.50;;;;;;5051908;28;20825;-83
2023/10/12 08:57:37;;;;;;;6.03;5.10;;;21.50;90.30;;;;;;5052261;28;20466;-83
2023/10/12 09:00:24;;;;;;;7.67;6.17;;;21.70;90.50;;;;;;5059225;28;21053;-83
2023/10/12 09:05:54;;;;;;;13.60;7.20;;;21.50;90.30;;;;;;5074778;28;20501;-84
2023/10/12 09:13:34;;;;;;;7.35;5.50;;;21.30;90.40;;;;;;5064378;28;20508;-84
2023/10/12 09:16:11;;;;;;;11.07;6.50;;;21.40;90.30;;;;;;5072667;28;20173;-84
2023/10/12 09:18:47;;;;;;;10.03;5.57;;;21.40;90.70;;;;;;5051030;28;20176;-84
2023/10/12 09:23:47;;;;;;;8.83;7.50;;;21.40;90.90;;;;;;5073141;28;20474;-85
2023/10/12 09:26:46;;;;;;;9.07;6.13;;;22.10;91.00;;;;;;5074310;28;20439;-86
2023/10/12 09:29:20;;;;;;;9.37;6.90;;;21.70;91.00;;;;;;5049276;28;20451;-86
2023/10/12 09:32:15;;;;;;;7.97;5.97;;;21.40;90.60;;;;;;5056646;28;20512;-85
2023/10/12 09:34:47;;;;;;;10.60;5.87;;;21.90;91.00;;;;;;5062478;28;20470;-83
2023/10/12 09:37:17;;;;;;;6.53;5.67;;;21.70;91.00;;;;;;5069002;28;20947;-83
2023/10/12 09:39:45;;;;;;;7.53;5.30;;;21.20;90.60;;;;;;5053231;28;20450;-83
2023/10/12 09:42:19;;;;;;;8.20;5.43;;;21.50;90.40;;;;;;5070393;28;20450;-84
2023/10/12 09:44:48;;;;;;;7.00;6.03;;;21.60;90.10;;;;;;5071173;28;20797;-83
2023/10/12 09:47:23;;;;;;;6.50;5.40;;;21.60;90.60;;;;;;5067949;28;20447;-83
2023/10/12 09:49:55;;;;;;;9.33;5.63;;;21.70;90.60;;;;;;5081687;28;20488;-83
2023/10/12 09:52:24;;;;;;;8.90;5.20;;;22.00;90.80;;;;;;5053301;28;20491;-83
2023/10/12 09:55:23;;;;;;;5.93;4.72;;;22.10;90.70;;;;;;5053390;28;20435;-84
2023/10/12 09:57:50;;;;;;;7.35;5.80;;;21.90;90.60;;;;;;5047322;28;20319;-83
2023/10/12 10:00:28;;;;;;;7.97;5.27;;;21.90;90.70;;;;;;5066362;28;20184;-83
2023/10/12 10:02:59;;;;;;;11.30;6.97;;;21.60;90.50;;;;;;5071177;28;20546;-84
2023/10/12 10:05:51;;;;;;;8.02;4.80;;;22.00;90.80;;;;;;5069880;28;20471;-84
2023/10/12 10:08:18;;;;;;;10.50;6.23;;;22.20;90.70;;;;;;5075849;28;20180;-84
2023/10/12 10:10:45;;;;;;;6.43;5.80;;;21.70;90.70;;;;;;5050469;28;21723;-83
2023/10/12 10:13:47;;;;;;;7.03;5.17;;;21.80;90.50;;;;;;5054329;28;20464;-84
2023/10/12 10:16:19;;;;;;;10.10;5.20;;;21.70;90.50;;;;;;5068861;28;20452;-84
2023/10/12 10:21:38;;;;;;;10.80;7.25;;;21.80;90.50;;;;;;5064264;28;20501;-83
2023/10/12 10:24:15;;;;;;;7.90;5.63;;;21.90;90.40;;;;;;5068483;28;20202;-84
2023/10/12 10:26:43;;;;;;;6.10;5.30;;;21.90;90.50;;;;;;5067075;28;20438;-84
2023/10/12 10:29:17;;;;;;;7.67;5.30;;;22.30;90.70;;;;;;5064866;28;20939;-84
2023/10/12 10:31:44;;;;;;;7.10;5.30;;;22.40;90.60;;;;;;5056537;28;20869;-84
2023/10/12 10:34:14;;;;;;;9.73;5.77;;;22.10;90.30;;;;;;5052314;28;20467;-84
2023/10/12 10:36:41;;;;;;;10.60;6.60;;;22.50;90.70;;;;;;5056878;28;20448;-83
2023/10/12 10:44:11;;;;;;;7.57;5.67;;;22.10;90.30;;;;;;5068441;28;20537;-85
2023/10/12 10:46:43;;;;;;;8.30;5.20;;;22.80;90.80;;;;;;5052047;28;20447;-83
2023/10/12 10:49:15;;;;;;;7.07;5.90;;;22.20;90.60;;;;;;5079187;28;20450;-84
2023/10/12 10:52:01;;;;;;;8.70;5.10;;;22.50;90.60;;;;;;5070316;28;20443;-83
2023/10/12 10:54:27;;;;;;;8.00;5.50;;;22.20;90.50;;;;;;5071422;28;20442;-87
2023/10/12 10:56:54;;;;;;;7.33;5.50;;;22.40;90.60;;;;;;5069087;28;20440;-88
2023/10/12 10:59:20;;;;;;;8.20;5.80;;;22.80;90.70;;;;;;5063875;28;20569;-87
2023/10/12 11:01:48;;;;;;;6.93;5.50;;;22.40;90.50;;;;;;5074825;28;20500;-88
2023/10/12 11:07:03;;;;;;;9.03;6.23;;;22.60;90.20;;;;;;5086596;28;20457;-88
2023/10/12 11:09:48;;;;;;;7.00;5.90;;;22.70;90.20;;;;;;5069960;28;20468;-89
2023/10/12 11:12:14;;;;;;;8.57;6.33;;;23.10;90.30;;;;;;5062424;28;20481;-89
2023/10/12 11:14:52;;;;;;;7.27;5.10;;;23.00;90.50;;;;;;5065061;28;20443;-88
2023/10/12 11:17:19;;;;;;;7.50;6.63;;;23.10;90.00;;;;;;5062431;28;20181;-88
2023/10/12 11:19:46;;;;;;;8.90;5.40;;;23.50;90.00;;;;;;5067696;28;20442;-88
2023/10/12 11:22:15;;;;;;;6.67;5.80;;;23.50;89.60;;;;;;5064052;28;20471;-88
2023/10/12 11:24:49;;;;;;;6.40;5.47;;;23.50;89.70;;;;;;5051072;28;20474;-88
2023/10/12 11:27:34;;;;;;;7.50;6.10;;;23.60;89.30;;;;;;5049795;28;20531;-88
2023/10/12 11:30:00;;;;;;;8.13;6.23;;;23.40;88.80;;;;;;5043158;28;20535;-87
2023/10/12 11:32:28;;;;;;;9.13;6.60;;;24.10;90.00;;;;;;5051612;28;20911;-89
2023/10/12 11:34:59;;;;;;;12.47;6.50;;;23.90;89.20;;;;;;5049345;28;20459;-88
2023/10/12 11:37:29;;;;;;;9.23;5.70;;;24.40;89.70;;;;;;5068943;28;20449;-88
2023/10/12 11:39:57;;;;;;;5.90;5.30;;;23.60;88.70;;;;;;5079950;28;20464;-89
2023/10/12 11:42:23;;;;;;;8.90;6.23;;;24.00;89.00;;;;;;5073325;28;20574;-86
2023/10/12 11:44:51;;;;;;;9.40;6.70;;;24.00;89.20;;;;;;5056870;28;20462;-86
2023/10/12 11:47:25;;;;;;;8.20;5.93;;;23.80;88.60;;;;;;5077220;28;20468;-88
2023/10/12 11:49:56;;;;;;;6.13;5.53;;;23.80;88.50;;;;;;5088922;28;20435;-86
2023/10/12 11:52:33;;;;;;;6.50;5.93;;;24.30;88.60;;;;;;5060100;28;20489;-86
2023/10/12 11:55:18;;;;;;;8.40;5.20;;;24.60;88.90;;;;;;5051572;28;20446;-87
2023/10/12 11:57:45;;;;;;;6.90;6.20;;;24.10;87.80;;;;;;5068512;28;20463;-87
2023/10/12 12:00:21;;;;;;;6.37;5.70;;;24.20;88.30;;;;;;5069207;28;20550;-88
2023/10/12 12:02:57;;;;;;;6.90;5.77;;;24.20;88.10;;;;;;5054218;28;20537;-87
2023/10/12 12:05:33;;;;;;;5.90;5.40;;;24.70;88.10;;;;;;5048055;28;20470;-89
2023/10/12 12:08:14;;;;;;;11.87;9.47;;;24.40;87.80;;;;;;5057744;28;20431;-88
2023/10/12 12:13:23;;;;;;;8.30;7.43;;;24.70;87.10;;;;;;5085820;28;20479;-88
2023/10/12 12:15:50;;;;;;;8.80;5.90;;;24.60;86.60;;;;;;5076809;28;20458;-88
2023/10/12 12:18:20;;;;;;;8.27;5.70;;;24.60;87.10;;;;;;5154801;22;20479;-89
2023/10/12 12:20:49;;;;;;;7.03;5.83;;;24.60;87.10;;;;;;5060455;28;20437;-88
2023/10/12 12:23:15;;;;;;;9.67;6.03;;;24.60;87.80;;;;;;5062578;28;20525;-88
2023/10/12 12:25:41;;;;;;;10.37;7.40;;;23.70;86.80;;;;;;5066989;28;20474;-87
2023/10/12 12:28:14;;;;;;;9.87;7.13;;;24.20;88.00;;;;;;5062025;28;20445;-87
2023/10/12 12:30:55;;;;;;;9.70;6.90;;;24.00;87.90;;;;;;5056799;28;20452;-86
2023/10/12 12:33:20;;;;;;;7.53;6.20;;;23.70;88.80;;;;;;5055269;28;20444;-87
2023/10/12 12:35:47;;;;;;;8.93;5.90;;;23.80;88.80;;;;;;5063318;28;20436;-87
2023/10/12 12:40:59;;;;;;;9.63;6.27;;;23.80;90.00;;;;;;5069087;28;20446;-85
2023/10/12 12:43:25;;;;;;;7.93;5.57;;;23.50;90.10;;;;;;5059893;28;20451;-85
2023/10/12 12:45:54;;;;;;;8.00;6.07;;;23.40;90.40;;;;;;5062862;28;20444;-86
2023/10/12 12:48:20;;;;;;;12.07;6.50;;;23.90;90.80;;;;;;5059443;28;20455;-89
2023/10/12 12:50:48;;;;;;;6.63;5.93;;;23.50;90.60;;;;;;5065896;28;20463;-88
2023/10/12 12:53:18;;;;;;;8.30;6.07;;;23.60;90.80;;;;;;5069077;28;20226;-87
2023/10/12 12:55:46;;;;;;;10.30;5.90;;;23.30;90.50;;;;;;5045650;28;20484;-88
2023/10/12 12:58:18;;;;;;;8.07;6.00;;;23.60;90.90;;;;;;5040804;28;20543;-87
2023/10/12 13:00:46;;;;;;;7.87;6.23;;;23.30;91.40;;;;;;5029641;28;20515;-87
2023/10/12 13:03:18;;;;;;;11.73;6.60;;;23.30;91.30;;;;;;5049715;28;20495;-89
2023/10/12 13:05:44;;;;;;;7.60;6.67;;;23.20;91.10;;;;;;5069672;28;20487;-89
2023/10/12 13:08:11;;;;;;;7.47;6.27;;;23.70;91.40;;;;;;5055425;28;20436;-89
2023/10/12 13:10:37;;;;;;;14.37;6.17;;;23.60;91.50;;;;;;5060621;28;20194;-89
2023/10/12 13:13:03;;;;;;;9.73;6.23;;;23.30;91.20;;;;;;5064718;28;20462;-88
2023/10/12 13:15:31;;;;;;;13.40;6.77;;;23.60;90.90;;;;;;5060896;28;20432;-88
2023/10/12 13:17:58;;;;;;;7.53;5.70;;;23.80;91.70;;;;;;5049899;28;20466;-88
2023/10/12 13:20:29;;;;;;;8.37;6.07;;;23.20;90.90;;;;;;5046587;28;20458;-89
2023/10/12 13:22:58;;;;;;;7.67;5.53;;;23.20;90.80;;;;;;5044920;28;20464;-87
2023/10/12 13:25:26;;;;;;;8.23;6.10;;;23.20;91.00;;;;;;5041857;28;20479;-88
2023/10/12 13:27:52;;;;;;;7.00;5.83;;;23.20;91.10;;;;;;5045071;28;20522;-88
2023/10/12 13:30:18;;;;;;;10.80;6.00;;;23.40;91.20;;;;;;5050602;28;20452;-89
2023/10/12 13:32:52;;;;;;;10.07;8.63;;;23.70;91.20;;;;;;5043091;28;20468;-89
2023/10/12 13:35:18;;;;;;;9.00;6.47;;;24.10;91.10;;;;;;5039945;28;20590;-89
2023/10/12 13:37:47;;;;;;;10.60;6.53;;;23.40;90.50;;;;;;5040702;28;20502;-88
2023/10/12 13:40:16;;;;;;;9.20;6.30;;;23.90;90.60;;;;;;5043963;28;20187;-87
2023/10/12 13:42:45;;;;;;;7.40;5.80;;;23.60;90.40;;;;;;5035055;28;20466;-88
2023/10/12 13:45:18;;;;;;;10.40;7.10;;;23.70;90.40;;;;;;5059635;28;20464;-88
2023/10/12 13:47:47;;;;;;;9.70;6.53;;;23.80;90.50;;;;;;5032992;28;20454;-89
2023/10/12 13:50:13;;;;;;;7.93;7.13;;;23.80;90.20;;;;;;5043197;28;20479;-87
2023/10/12 13:52:40;;;;;;;7.30;6.37;;;24.10;90.20;;;;;;5050451;28;20476;-87
2023/10/12 13:55:11;;;;;;;7.13;6.43;;;23.70;90.00;;;;;;5048399;28;20448;-86
2023/10/12 13:57:39;;;;;;;12.80;6.90;;;23.80;90.30;;;;;;5044974;28;20466;-87
2023/10/12 14:00:05;;;;;;;11.27;6.90;;;23.80;90.00;;;;;;5020864;28;20456;-88
2023/10/12 14:02:31;;;;;;;8.27;6.23;;;23.90;90.10;;;;;;5037410;28;20488;-88
2023/10/12 14:04:58;;;;;;;9.00;6.50;;;24.30;90.40;;;;;;5043941;28;20538;-88
2023/10/12 14:07:24;;;;;;;8.77;7.60;;;24.00;90.10;;;;;;5041449;28;20685;-87
2023/10/12 14:09:52;;;;;;;11.70;7.17;;;24.20;90.40;;;;;;5041547;28;20454;-86
2023/10/12 14:12:18;;;;;;;9.93;8.73;;;25.00;90.80;;;;;;5045822;28;20889;-87
2023/10/12 14:14:43;;;;;;;10.80;6.33;;;25.70;90.80;;;;;;5038541;28;20448;-86
2023/10/12 14:17:10;;;;;;;7.40;6.07;;;24.20;90.10;;;;;;5024690;28;20188;-87
2023/10/12 14:19:36;;;;;;;8.30;6.53;;;25.20;90.60;;;;;;5041605;28;20648;-86
2023/10/12 14:22:05;;;;;;;10.93;7.33;;;24.70;90.20;;;;;;5055690;28;20436;-87
2023/10/12 14:24:33;;;;;;;7.83;6.47;;;24.90;90.60;;;;;;5061128;28;20486;-86
2023/10/12 14:27:00;;;;;;;8.40;6.73;;;24.10;90.40;;;;;;5039972;28;20531;-86
2023/10/12 14:29:26;;;;;;;10.60;7.77;;;24.50;90.60;;;;;;5038476;28;20448;-86
2023/10/12 14:31:52;;;;;;;9.10;6.30;;;24.60;91.00;;;;;;5053016;28;20461;-88
2023/10/12 14:34:17;;;;;;;8.30;7.10;;;24.20;90.70;;;;;;5044086;28;20446;-87
2023/10/12 14:36:44;;;;;;;11.00;8.33;;;24.10;90.60;;;;;;5039113;28;20224;-86
2023/10/12 14:39:22;;;;;;;10.03;7.57;;;24.60;90.80;;;;;;5031172;28;20198;-86
2023/10/12 14:41:48;;;;;;;11.17;6.97;;;24.10;90.30;;;;;;5035924;28;20448;-85
2023/10/12 14:44:16;;;;;;;9.80;7.20;;;24.50;90.90;;;;;;5023237;28;21072;-86
2023/10/12 14:46:41;;;;;;;9.53;6.93;;;24.10;90.20;;;;;;5025841;28;20455;-88
2023/10/12 14:49:11;;;;;;;7.77;6.67;;;24.10;90.00;;;;;;5035262;28;20879;-88
2023/10/12 14:51:37;;;;;;;8.00;6.90;;;24.20;90.60;;;;;;5033221;28;20233;-88
2023/10/12 14:54:03;;;;;;;8.13;6.80;;;24.50;90.80;;;;;;5023919;28;20497;-87
2023/10/12 14:56:29;;;;;;;7.77;6.33;;;24.10;90.20;;;;;;5049582;28;20436;-85
2023/10/12 14:58:56;;;;;;;8.00;6.30;;;24.00;90.20;;;;;;5040396;28;20178;-86
2023/10/12 15:01:27;;;;;;;7.83;6.70;;;24.20;90.20;;;;;;5041716;28;20450;-85
2023/10/12 15:03:57;;;;;;;10.33;6.27;;;23.90;90.20;;;;;;5056975;28;20465;-85
2023/10/12 15:06:22;;;;;;;8.00;6.60;;;23.80;90.60;;;;;;5041630;28;20753;-85
2023/10/12 15:08:48;;;;;;;10.07;6.60;;;23.80;90.60;;;;;;5040730;28;20446;-85
2023/10/12 15:11:15;;;;;;;10.00;6.60;;;24.00;90.80;;;;;;5047289;28;20200;-86
2023/10/12 15:13:41;;;;;;;8.13;7.33;;;24.00;91.00;;;;;;5027295;28;20471;-86